Wetterdaten: Woche 21.06.10 - 27.06.10 (KW25)
Datum Zeit Temp. Innen Temp. Aussen UV X Diff Temp. Feuchte Inne Feuchte Auss Sonnenschein Luftdruck Regen ab 0,1 Wind Sonnenschein Windben
21.06.2010 00:00 19,1 C 11,8 C 0,1 UV-I 0,0 C 52 % 74 % 0 % 1021,0 hPa 0,0 l/m 0,4 km/h (0 Bft) 0,00 h 1,0 km/h (0 Bft)
21.06.2010 01:00 19,0 C 11,6 C 0,1 UV-I 0,0 C 52 % 76 % 0 % 1021,2 hPa 0,0 l/m 0,3 km/h (0 Bft) 0,00 h 0,5 km/h (0 Bft)
21.06.2010 02:00 19,0 C 11,5 C 0,1 UV-I 0,0 C 52 % 77 % 0 % 1021,1 hPa 0,0 l/m 0,4 km/h (0 Bft) 0,00 h 0,7 km/h (0 Bft)
21.06.2010 03:00 18,9 C 11,2 C 0,1 UV-I 0,0 C 52 % 78 % 0 % 1021,1 hPa 0,0 l/m 0,6 km/h (0 Bft) 0,00 h 0,0 km/h (0 Bft)
21.06.2010 04:00 18,9 C 11,1 C 0,1 UV-I 0,0 C 52 % 79 % 0 % 1021,0 hPa 0,0 l/m 0,3 km/h (0 Bft) 0,00 h 0,8 km/h (0 Bft)
21.06.2010 05:00 18,9 C 10,9 C 0,2 UV-I 0,0 C 53 % 80 % 0 % 1021,0 hPa 0,0 l/m 0,1 km/h (0 Bft) 0,00 h 0,2 km/h (0 Bft)
21.06.2010 06:00 18,9 C 11,1 C 0,6 UV-I 0,0 C 53 % 80 % 0 % 1021,2 hPa 0,0 l/m 0,3 km/h (0 Bft) 0,00 h 1,0 km/h (0 Bft)
21.06.2010 07:00 18,9 C 11,4 C 1,5 UV-I 0,4 C 52 % 78 % 12 % 1021,5 hPa 0,0 l/m 1,5 km/h (1 Bft) 0,00 h 2,4 km/h (1 Bft)
21.06.2010 08:00 19,1 C 12,4 C 3,7 UV-I 2,7 C 52 % 74 % 76 % 1021,9 hPa 0,0 l/m 3,0 km/h (1 Bft) 0,20 h 6,3 km/h (2 Bft)
21.06.2010 09:00 19,3 C 13,2 C 3,9 UV-I 2,3 C 52 % 73 % 66 % 1022,1 hPa 0,0 l/m 3,5 km/h (1 Bft) 0,00 h 4,1 km/h (1 Bft)
21.06.2010 10:00 19,6 C 14,1 C 7,3 UV-I 3,6 C 51 % 70 % 86 % 1022,4 hPa 0,0 l/m 3,9 km/h (1 Bft) 0,23 h 4,1 km/h (1 Bft)
21.06.2010 11:00 19,7 C 14,6 C 4,8 UV-I 2,8 C 51 % 66 % 75 % 1022,5 hPa 0,0 l/m 3,5 km/h (1 Bft) 0,50 h 4,6 km/h (1 Bft)
21.06.2010 12:00 19,9 C 15,7 C 8,2 UV-I 4,5 C 50 % 62 % 97 % 1022,5 hPa 0,0 l/m 4,1 km/h (1 Bft) 0,83 h 5,8 km/h (2 Bft)
21.06.2010 13:00 20,4 C 16,6 C 7,1 UV-I 4,0 C 49 % 58 % 91 % 1022,9 hPa 0,0 l/m 5,8 km/h (2 Bft) 0,67 h 5,6 km/h (1 Bft)
21.06.2010 14:00 21,3 C 17,9 C 8,9 UV-I 5,3 C 48 % 50 % 100 % 1023,0 hPa 0,0 l/m 6,7 km/h (2 Bft) 0,77 h 10,4 km/h (2 Bft)
21.06.2010 15:00 22,2 C 18,0 C 7,9 UV-I 3,9 C 45 % 48 % 94 % 1023,2 hPa 0,0 l/m 10,6 km/h (2 Bft) 0,70 h 13,1 km/h (3 Bft)
21.06.2010 16:00 23,3 C 18,6 C 9,2 UV-I 4,4 C 42 % 46 % 100 % 1024,8 hPa 0,0 l/m 9,9 km/h (2 Bft) 0,72 h 9,3 km/h (2 Bft)
21.06.2010 17:00 23,9 C 18,8 C 10,0 UV-I 3,9 C 40 % 44 % 99 % 1024,5 hPa 0,0 l/m 9,7 km/h (2 Bft) 1,00 h 10,4 km/h (2 Bft)
21.06.2010 18:00 23,8 C 18,4 C 4,7 UV-I 2,9 C 40 % 45 % 77 % 1024,3 hPa 0,0 l/m 10,0 km/h (2 Bft) 0,63 h 12,3 km/h (3 Bft)
21.06.2010 19:00 22,9 C 17,6 C 2,7 UV-I 0,1 C 40 % 46 % 4 % 1023,5 hPa 0,0 l/m 10,3 km/h (2 Bft) 0,00 h 10,9 km/h (2 Bft)
21.06.2010 20:00 22,1 C 16,9 C 1,5 UV-I 0,0 C 42 % 50 % 0 % 1023,4 hPa 0,0 l/m 4,9 km/h (1 Bft) 0,00 h 4,4 km/h (1 Bft)
21.06.2010 21:00 21,5 C 15,7 C 0,4 UV-I 0,0 C 43 % 56 % 0 % 1023,5 hPa 0,0 l/m 0,8 km/h (0 Bft) 0,00 h 1,6 km/h (1 Bft)
21.06.2010 22:00 21,1 C 14,2 C 0,1 UV-I 0,0 C 45 % 63 % 0 % 1023,9 hPa 0,0 l/m 0,0 km/h (0 Bft) 0,00 h 0,0 km/h (0 Bft)
21.06.2010 23:00 20,8 C 13,0 C 0,1 UV-I 0,0 C 46 % 69 % 0 % 1024,2 hPa 0,0 l/m 0,0 km/h (0 Bft) 0,00 h 0,0 km/h (0 Bft)
22.06.2010 00:00 20,6 C 12,7 C 0,1 UV-I 0,0 C 47 % 71 % 0 % 1024,4 hPa 0,0 l/m 0,0 km/h (0 Bft) 0,00 h 0,4 km/h (0 Bft)
22.06.2010 01:00 20,3 C 12,5 C 0,1 UV-I 0,0 C 48 % 74 % 0 % 1024,3 hPa 0,0 l/m 0,8 km/h (0 Bft) 0,00 h 1,2 km/h (1 Bft)
22.06.2010 02:00 20,1 C 11,2 C 0,1 UV-I 0,0 C 49 % 79 % 0 % 1024,2 hPa 0,0 l/m 0,0 km/h (0 Bft) 0,00 h 0,0 km/h (0 Bft)
22.06.2010 03:00 19,8 C 10,2 C 0,1 UV-I 0,0 C 50 % 83 % 0 % 1024,5 hPa 0,0 l/m 0,0 km/h (0 Bft) 0,00 h 0,0 km/h (0 Bft)
22.06.2010 04:00 19,6 C 9,3 C 0,1 UV-I 0,0 C 50 % 86 % 0 % 1024,4 hPa 0,0 l/m 0,0 km/h (0 Bft) 0,00 h 0,0 km/h (0 Bft)
22.06.2010 05:00 19,4 C 8,6 C 0,2 UV-I 0,0 C 51 % 88 % 0 % 1024,6 hPa 0,0 l/m 0,0 km/h (0 Bft) 0,00 h 0,0 km/h (0 Bft)
22.06.2010 06:00 19,2 C 8,4 C 0,8 UV-I 0,0 C 51 % 90 % 0 % 1024,7 hPa 0,0 l/m 0,0 km/h (0 Bft) 0,00 h 0,0 km/h (0 Bft)
22.06.2010 07:00 19,1 C 9,8 C 1,9 UV-I 0,0 C 51 % 91 % 0 % 1025,0 hPa 0,0 l/m 1,1 km/h (0 Bft) 0,00 h 2,1 km/h (1 Bft)
22.06.2010 08:00 19,2 C 12,4 C 3,7 UV-I 4,9 C 53 % 86 % 79 % 1025,4 hPa 0,0 l/m 1,6 km/h (1 Bft) 0,70 h 1,7 km/h (1 Bft)
22.06.2010 09:00 19,4 C 15,2 C 10,6 UV-I 7,8 C 53 % 77 % 100 % 1025,8 hPa 0,0 l/m 2,0 km/h (1 Bft) 0,93 h 2,9 km/h (1 Bft)
22.06.2010 10:00 19,6 C 17,5 C 13,5 UV-I 8,4 C 53 % 67 % 100 % 1025,8 hPa 0,0 l/m 3,3 km/h (1 Bft) 0,90 h 4,7 km/h (1 Bft)
22.06.2010 11:00 20,1 C 18,3 C 9,5 UV-I 5,2 C 52 % 60 % 95 % 1025,9 hPa 0,0 l/m 4,2 km/h (1 Bft) 0,67 h 5,5 km/h (1 Bft)
22.06.2010 12:00 20,6 C 18,9 C 8,8 UV-I 4,3 C 51 % 57 % 96 % 1026,0 hPa 0,0 l/m 4,7 km/h (1 Bft) 0,97 h 4,6 km/h (1 Bft)
22.06.2010 13:00 21,2 C 20,5 C 10,5 UV-I 5,9 C 49 % 50 % 100 % 1026,0 hPa 0,0 l/m 4,8 km/h (1 Bft) 1,00 h 4,3 km/h (1 Bft)
22.06.2010 14:00 22,0 C 21,4 C 10,2 UV-I 5,3 C 47 % 46 % 100 % 1026,2 hPa 0,0 l/m 4,9 km/h (1 Bft) 0,93 h 5,8 km/h (2 Bft)
22.06.2010 15:00 23,3 C 22,2 C 10,1 UV-I 5,4 C 43 % 42 % 100 % 1027,1 hPa 0,0 l/m 4,1 km/h (1 Bft) 0,97 h 4,7 km/h (1 Bft)
22.06.2010 16:00 24,4 C 22,4 C 9,3 UV-I 5,0 C 41 % 41 % 100 % 1027,8 hPa 0,0 l/m 5,1 km/h (1 Bft) 0,90 h 5,7 km/h (1 Bft)
22.06.2010 17:00 24,8 C 22,3 C 8,7 UV-I 4,4 C 40 % 41 % 100 % 1027,3 hPa 0,0 l/m 5,9 km/h (2 Bft) 0,80 h 6,9 km/h (2 Bft)
22.06.2010 18:00 24,6 C 21,6 C 4,6 UV-I 2,8 C 40 % 41 % 76 % 1026,7 hPa 0,0 l/m 4,0 km/h (1 Bft) 0,40 h 4,5 km/h (1 Bft)
22.06.2010 19:00 23,9 C 21,1 C 2,7 UV-I 0,4 C 42 % 43 % 10 % 1025,9 hPa 0,0 l/m 3,3 km/h (1 Bft) 0,00 h 3,7 km/h (1 Bft)
22.06.2010 20:00 23,4 C 20,6 C 1,5 UV-I 0,0 C 44 % 45 % 0 % 1025,7 hPa 0,0 l/m 3,2 km/h (1 Bft) 0,00 h 3,7 km/h (1 Bft)
22.06.2010 21:00 22,8 C 19,4 C 0,5 UV-I 0,0 C 46 % 51 % 0 % 1025,4 hPa 0,0 l/m 0,8 km/h (0 Bft) 0,00 h 0,9 km/h (0 Bft)
22.06.2010 22:00 22,3 C 17,4 C 0,1 UV-I 0,0 C 47 % 57 % 0 % 1025,8 hPa 0,0 l/m 0,0 km/h (0 Bft) 0,00 h 0,0 km/h (0 Bft)
22.06.2010 23:00 21,9 C 15,5 C 0,1 UV-I 0,0 C 48 % 66 % 0 % 1025,8 hPa 0,0 l/m 0,0 km/h (0 Bft) 0,00 h 0,0 km/h (0 Bft)
23.06.2010 00:00 21,6 C 13,9 C 0,1 UV-I 0,0 C 49 % 72 % 0 % 1025,8 hPa 0,0 l/m 0,0 km/h (0 Bft) 0,00 h 0,0 km/h (0 Bft)
23.06.2010 01:00 21,4 C 12,8 C 0,1 UV-I 0,0 C 49 % 77 % 0 % 1025,7 hPa 0,0 l/m 0,0 km/h (0 Bft) 0,00 h 0,0 km/h (0 Bft)
23.06.2010 02:00 21,1 C 11,8 C 0,1 UV-I 0,0 C 50 % 80 % 0 % 1025,5 hPa 0,0 l/m 0,0 km/h (0 Bft) 0,00 h 0,0 km/h (0 Bft)
23.06.2010 03:00 20,8 C 11,0 C 0,1 UV-I 0,0 C 51 % 83 % 0 % 1025,2 hPa 0,0 l/m 0,0 km/h (0 Bft) 0,00 h 0,0 km/h (0 Bft)
23.06.2010 04:00 20,5 C 10,3 C 0,1 UV-I 0,0 C 52 % 86 % 0 % 1025,0 hPa 0,0 l/m 0,0 km/h (0 Bft) 0,00 h 0,0 km/h (0 Bft)
23.06.2010 05:00 20,3 C 9,7 C 0,2 UV-I 0,0 C 51 % 87 % 0 % 1025,1 hPa 0,0 l/m 0,0 km/h (0 Bft) 0,00 h 0,0 km/h (0 Bft)
23.06.2010 06:00 20,1 C 9,6 C 0,9 UV-I 0,0 C 52 % 89 % 0 % 1024,8 hPa 0,0 l/m 0,0 km/h (0 Bft) 0,00 h 0,0 km/h (0 Bft)
23.06.2010 07:00 20,1 C 10,9 C 2,0 UV-I 0,4 C 52 % 88 % 12 % 1025,0 hPa 0,0 l/m 0,0 km/h (0 Bft) 0,00 h 0,0 km/h (0 Bft)
23.06.2010 08:00 20,2 C 14,6 C 4,2 UV-I 5,7 C 52 % 78 % 86 % 1024,9 hPa 0,0 l/m 0,5 km/h (0 Bft) 0,63 h 0,9 km/h (0 Bft)
23.06.2010 09:00 20,4 C 18,9 C 11,5 UV-I 6,7 C 52 % 63 % 100 % 1025,1 hPa 0,0 l/m 1,0 km/h (0 Bft) 0,50 h 1,0 km/h (0 Bft)
23.06.2010 10:00 20,7 C 21,2 C 14,7 UV-I 7,1 C 52 % 51 % 100 % 1025,1 hPa 0,0 l/m 1,9 km/h (1 Bft) 1,00 h 2,7 km/h (1 Bft)
23.06.2010 11:00 20,9 C 22,0 C 12,3 UV-I 6,5 C 51 % 46 % 100 % 1024,9 hPa 0,0 l/m 5,1 km/h (1 Bft) 0,90 h 7,0 km/h (2 Bft)
23.06.2010 12:00 21,5 C 22,9 C 9,7 UV-I 6,0 C 50 % 45 % 100 % 1024,8 hPa 0,0 l/m 5,5 km/h (1 Bft) 0,90 h 6,0 km/h (2 Bft)
23.06.2010 13:00 22,1 C 24,1 C 9,4 UV-I 5,5 C 49 % 41 % 100 % 1024,7 hPa 0,0 l/m 5,0 km/h (1 Bft) 0,87 h 5,5 km/h (1 Bft)
23.06.2010 14:00 23,0 C 24,8 C 9,2 UV-I 5,3 C 47 % 38 % 100 % 1024,7 hPa 0,0 l/m 5,3 km/h (1 Bft) 1,00 h 5,5 km/h (1 Bft)
23.06.2010 15:00 24,0 C 25,6 C 9,5 UV-I 4,8 C 45 % 37 % 100 % 1025,3 hPa 0,0 l/m 6,4 km/h (2 Bft) 1,00 h 6,5 km/h (2 Bft)
23.06.2010 16:00 24,2 C 26,2 C 10,9 UV-I 5,1 C 44 % 35 % 100 % 1025,3 hPa 0,0 l/m 5,3 km/h (1 Bft) 1,00 h 6,2 km/h (2 Bft)
23.06.2010 17:00 23,9 C 26,4 C 12,2 UV-I 4,8 C 44 % 35 % 100 % 1023,7 hPa 0,0 l/m 5,5 km/h (1 Bft) 0,97 h 5,2 km/h (1 Bft)
23.06.2010 18:00 23,8 C 25,3 C 4,7 UV-I 3,2 C 45 % 36 % 77 % 1023,2 hPa 0,0 l/m 6,7 km/h (2 Bft) 0,63 h 7,2 km/h (2 Bft)
23.06.2010 19:00 23,5 C 24,8 C 3,0 UV-I 0,1 C 45 % 36 % 2 % 1022,6 hPa 0,0 l/m 5,4 km/h (1 Bft) 0,00 h 5,1 km/h (1 Bft)
23.06.2010 20:00 23,3 C 24,3 C 1,6 UV-I 0,0 C 45 % 37 % 0 % 1022,4 hPa 0,0 l/m 2,8 km/h (1 Bft) 0,00 h 2,5 km/h (1 Bft)
23.06.2010 21:00 23,2 C 22,5 C 0,5 UV-I 0,0 C 46 % 43 % 0 % 1022,3 hPa 0,0 l/m 0,1 km/h (0 Bft) 0,00 h 0,1 km/h (0 Bft)
23.06.2010 22:00 22,8 C 19,8 C 0,1 UV-I 0,0 C 47 % 53 % 0 % 1022,2 hPa 0,0 l/m 0,0 km/h (0 Bft) 0,00 h 0,0 km/h (0 Bft)
23.06.2010 23:00 22,5 C 17,6 C 0,1 UV-I 0,0 C 48 % 60 % 0 % 1022,4 hPa 0,0 l/m 0,0 km/h (0 Bft) 0,00 h 0,0 km/h (0 Bft)
24.06.2010 00:00 22,3 C 16,3 C 0,1 UV-I 0,0 C 49 % 67 % 0 % 1022,3 hPa 0,0 l/m 0,1 km/h (0 Bft) 0,00 h 0,2 km/h (0 Bft)
24.06.2010 01:00 22,1 C 15,1 C 0,1 UV-I 0,0 C 50 % 71 % 0 % 1021,8 hPa 0,0 l/m 0,0 km/h (0 Bft) 0,00 h 0,0 km/h (0 Bft)
24.06.2010 02:00 21,9 C 14,2 C 0,1 UV-I 0,0 C 50 % 75 % 0 % 1021,9 hPa 0,0 l/m 0,1 km/h (0 Bft) 0,00 h 0,4 km/h (0 Bft)
24.06.2010 03:00 21,7 C 13,4 C 0,1 UV-I 0,0 C 51 % 79 % 0 % 1021,6 hPa 0,0 l/m 0,0 km/h (0 Bft) 0,00 h 0,0 km/h (0 Bft)
24.06.2010 04:00 21,5 C 12,8 C 0,1 UV-I 0,0 C 51 % 82 % 0 % 1021,3 hPa 0,0 l/m 0,0 km/h (0 Bft) 0,00 h 0,0 km/h (0 Bft)
24.06.2010 05:00 21,3 C 12,2 C 0,2 UV-I 0,0 C 52 % 84 % 0 % 1021,0 hPa 0,0 l/m 0,0 km/h (0 Bft) 0,00 h 0,0 km/h (0 Bft)
24.06.2010 06:00 21,1 C 12,3 C 0,9 UV-I 0,0 C 53 % 85 % 0 % 1021,2 hPa 0,0 l/m 0,0 km/h (0 Bft) 0,00 h 0,0 km/h (0 Bft)
24.06.2010 07:00 21,1 C 14,0 C 2,2 UV-I 0,3 C 53 % 82 % 9 % 1021,2 hPa 0,0 l/m 0,6 km/h (0 Bft) 0,00 h 1,0 km/h (0 Bft)
24.06.2010 08:00 21,4 C 17,0 C 4,5 UV-I 5,3 C 53 % 75 % 86 % 1021,4 hPa 0,0 l/m 0,8 km/h (0 Bft) 0,77 h 1,9 km/h (1 Bft)
24.06.2010 09:00 21,7 C 21,2 C 11,1 UV-I 6,7 C 53 % 61 % 100 % 1021,6 hPa 0,0 l/m 2,0 km/h (1 Bft) 0,90 h 2,9 km/h (1 Bft)
24.06.2010 10:00 21,9 C 24,0 C 14,1 UV-I 6,9 C 52 % 51 % 100 % 1021,6 hPa 0,0 l/m 1,8 km/h (1 Bft) 0,93 h 2,0 km/h (1 Bft)
24.06.2010 11:00 22,2 C 25,7 C 13,1 UV-I 6,6 C 51 % 41 % 100 % 1021,3 hPa 0,0 l/m 2,9 km/h (1 Bft) 1,00 h 4,4 km/h (1 Bft)
24.06.2010 12:00 22,5 C 26,6 C 10,1 UV-I 5,9 C 50 % 38 % 100 % 1021,1 hPa 0,0 l/m 4,8 km/h (1 Bft) 0,97 h 6,4 km/h (2 Bft)
24.06.2010 13:00 22,9 C 27,6 C 10,1 UV-I 5,2 C 50 % 37 % 100 % 1021,2 hPa 0,0 l/m 4,0 km/h (1 Bft) 0,87 h 4,4 km/h (1 Bft)
24.06.2010 14:00 24,0 C 28,6 C 10,5 UV-I 5,3 C 48 % 35 % 100 % 1021,0 hPa 0,0 l/m 4,4 km/h (1 Bft) 0,90 h 5,2 km/h (1 Bft)
24.06.2010 15:00 25,5 C 28,4 C 9,8 UV-I 4,4 C 45 % 35 % 100 % 1021,7 hPa 0,0 l/m 5,0 km/h (1 Bft) 1,00 h 5,2 km/h (1 Bft)
24.06.2010 16:00 26,5 C 29,1 C 10,0 UV-I 4,7 C 43 % 35 % 100 % 1022,2 hPa 0,0 l/m 5,0 km/h (1 Bft) 1,00 h 5,0 km/h (1 Bft)
24.06.2010 17:00 26,7 C 28,2 C 6,6 UV-I 2,4 C 42 % 36 % 65 % 1021,6 hPa 0,0 l/m 4,4 km/h (1 Bft) 0,30 h 6,0 km/h (2 Bft)
24.06.2010 18:00 26,4 C 27,9 C 4,7 UV-I 2,7 C 43 % 37 % 72 % 1020,4 hPa 0,0 l/m 4,8 km/h (1 Bft) 0,50 h 5,0 km/h (1 Bft)
24.06.2010 19:00 25,8 C 27,1 C 2,7 UV-I 0,1 C 44 % 38 % 4 % 1019,4 hPa 0,0 l/m 4,0 km/h (1 Bft) 0,00 h 4,6 km/h (1 Bft)
24.06.2010 20:00 25,3 C 26,2 C 1,3 UV-I 0,0 C 45 % 43 % 0 % 1018,9 hPa 0,0 l/m 1,0 km/h (0 Bft) 0,00 h 0,4 km/h (0 Bft)
24.06.2010 21:00 24,9 C 24,4 C 0,4 UV-I 0,0 C 47 % 50 % 0 % 1018,9 hPa 0,0 l/m 0,6 km/h (0 Bft) 0,00 h 1,0 km/h (0 Bft)
24.06.2010 22:00 24,4 C 22,5 C 0,1 UV-I 0,0 C 48 % 57 % 0 % 1019,2 hPa 0,0 l/m 1,4 km/h (1 Bft) 0,00 h 1,6 km/h (1 Bft)
24.06.2010 23:00 24,0 C 21,1 C 0,1 UV-I 0,0 C 49 % 60 % 0 % 1019,6 hPa 0,0 l/m 1,5 km/h (1 Bft) 0,00 h 2,2 km/h (1 Bft)
25.06.2010 00:00 23,7 C 19,8 C 0,1 UV-I 0,0 C 50 % 64 % 0 % 1019,7 hPa 0,0 l/m 1,5 km/h (1 Bft) 0,00 h 2,6 km/h (1 Bft)
25.06.2010 01:00 23,5 C 19,0 C 0,1 UV-I 0,0 C 50 % 68 % 0 % 1019,8 hPa 0,0 l/m 0,7 km/h (0 Bft) 0,00 h 1,1 km/h (0 Bft)
25.06.2010 02:00 23,3 C 18,4 C 0,1 UV-I 0,0 C 51 % 70 % 0 % 1019,6 hPa 0,0 l/m 0,1 km/h (0 Bft) 0,00 h 0,4 km/h (0 Bft)
25.06.2010 03:00 23,2 C 17,9 C 0,1 UV-I 0,0 C 51 % 71 % 0 % 1019,4 hPa 0,0 l/m 0,2 km/h (0 Bft) 0,00 h 0,0 km/h (0 Bft)
25.06.2010 04:00 23,1 C 17,3 C 0,1 UV-I 0,0 C 52 % 73 % 0 % 1019,5 hPa 0,0 l/m 0,1 km/h (0 Bft) 0,00 h 0,0 km/h (0 Bft)
25.06.2010 05:00 23,0 C 16,0 C 0,2 UV-I 0,0 C 52 % 76 % 0 % 1019,6 hPa 0,0 l/m 0,1 km/h (0 Bft) 0,00 h 0,0 km/h (0 Bft)
25.06.2010 06:00 22,8 C 15,3 C 0,9 UV-I 0,0 C 53 % 79 % 0 % 1019,7 hPa 0,0 l/m 0,1 km/h (0 Bft) 0,00 h 0,0 km/h (0 Bft)
25.06.2010 07:00 22,8 C 16,2 C 2,5 UV-I 0,0 C 53 % 80 % 0 % 1019,8 hPa 0,0 l/m 3,2 km/h (1 Bft) 0,00 h 5,6 km/h (1 Bft)
25.06.2010 08:00 22,8 C 17,5 C 4,4 UV-I 3,9 C 53 % 75 % 78 % 1019,9 hPa 0,0 l/m 7,8 km/h (2 Bft) 0,70 h 9,4 km/h (2 Bft)
25.06.2010 09:00 22,8 C 19,2 C 12,2 UV-I 6,5 C 53 % 69 % 100 % 1020,0 hPa 0,0 l/m 6,4 km/h (2 Bft) 0,93 h 6,5 km/h (2 Bft)
25.06.2010 10:00 22,9 C 20,9 C 15,1 UV-I 6,9 C 53 % 64 % 100 % 1020,1 hPa 0,0 l/m 5,8 km/h (2 Bft) 0,97 h 7,4 km/h (2 Bft)
25.06.2010 11:00 23,1 C 22,2 C 12,9 UV-I 6,4 C 53 % 59 % 100 % 1020,0 hPa 0,0 l/m 7,1 km/h (2 Bft) 0,73 h 7,4 km/h (2 Bft)
25.06.2010 12:00 23,3 C 23,6 C 10,0 UV-I 5,6 C 52 % 53 % 100 % 1020,0 hPa 0,0 l/m 8,2 km/h (2 Bft) 0,70 h 12,7 km/h (3 Bft)
25.06.2010 13:00 23,8 C 24,6 C 10,1 UV-I 5,3 C 51 % 49 % 100 % 1020,1 hPa 0,0 l/m 7,7 km/h (2 Bft) 0,93 h 8,0 km/h (2 Bft)
25.06.2010 14:00 24,6 C 24,9 C 8,7 UV-I 4,2 C 50 % 47 % 96 % 1020,1 hPa 0,0 l/m 10,0 km/h (2 Bft) 0,90 h 11,2 km/h (2 Bft)
25.06.2010 15:00 25,5 C 25,3 C 8,6 UV-I 3,7 C 48 % 45 % 85 % 1020,6 hPa 0,0 l/m 7,6 km/h (2 Bft) 0,57 h 7,7 km/h (2 Bft)
25.06.2010 16:00 26,3 C 25,7 C 8,7 UV-I 3,5 C 45 % 44 % 83 % 1020,7 hPa 0,0 l/m 7,0 km/h (2 Bft) 0,50 h 8,0 km/h (2 Bft)
25.06.2010 17:00 26,8 C 25,4 C 7,9 UV-I 3,0 C 44 % 44 % 86 % 1020,8 hPa 0,0 l/m 10,2 km/h (2 Bft) 0,40 h 12,0 km/h (2 Bft)
25.06.2010 18:00 26,5 C 25,1 C 4,8 UV-I 2,4 C 45 % 44 % 69 % 1019,9 hPa 0,0 l/m 8,0 km/h (2 Bft) 0,17 h 9,7 km/h (2 Bft)
25.06.2010 19:00 25,8 C 24,4 C 2,9 UV-I 0,1 C 46 % 45 % 2 % 1019,0 hPa 0,0 l/m 8,2 km/h (2 Bft) 0,00 h 10,2 km/h (2 Bft)
25.06.2010 20:00 25,3 C 23,7 C 1,5 UV-I 0,0 C 46 % 47 % 0 % 1018,6 hPa 0,0 l/m 8,0 km/h (2 Bft) 0,00 h 7,3 km/h (2 Bft)
25.06.2010 21:00 24,9 C 22,4 C 0,4 UV-I 0,0 C 47 % 51 % 0 % 1018,8 hPa 0,0 l/m 4,9 km/h (1 Bft) 0,00 h 5,1 km/h (1 Bft)
25.06.2010 22:00 24,3 C 20,5 C 0,0 UV-I 0,0 C 48 % 56 % 0 % 1019,1 hPa 0,0 l/m 1,0 km/h (0 Bft) 0,00 h 0,5 km/h (0 Bft)
25.06.2010 23:00 24,0 C 18,6 C 0,1 UV-I 0,0 C 49 % 62 % 0 % 1019,3 hPa 0,0 l/m 0,0 km/h (0 Bft) 0,00 h 0,0 km/h (0 Bft)
26.06.2010 00:00 23,7 C 17,1 C 0,1 UV-I 0,0 C 50 % 68 % 0 % 1019,4 hPa 0,0 l/m 0,0 km/h (0 Bft) 0,00 h 0,0 km/h (0 Bft)
26.06.2010 01:00 23,4 C 15,9 C 0,1 UV-I 0,0 C 51 % 72 % 0 % 1019,5 hPa 0,0 l/m 0,0 km/h (0 Bft) 0,00 h 0,0 km/h (0 Bft)
26.06.2010 02:00 23,2 C 15,0 C 0,1 UV-I 0,0 C 51 % 76 % 0 % 1019,7 hPa 0,0 l/m 0,0 km/h (0 Bft) 0,00 h 0,0 km/h (0 Bft)
26.06.2010 03:00 23,0 C 14,3 C 0,1 UV-I 0,0 C 52 % 78 % 0 % 1019,5 hPa 0,0 l/m 0,0 km/h (0 Bft) 0,00 h 0,0 km/h (0 Bft)
26.06.2010 04:00 22,8 C 13,5 C 0,1 UV-I 0,0 C 52 % 81 % 0 % 1019,4 hPa 0,0 l/m 0,0 km/h (0 Bft) 0,00 h 0,0 km/h (0 Bft)
26.06.2010 05:00 22,6 C 12,9 C 0,2 UV-I 0,0 C 52 % 82 % 0 % 1019,7 hPa 0,0 l/m 0,0 km/h (0 Bft) 0,00 h 0,0 km/h (0 Bft)
26.06.2010 06:00 22,3 C 12,9 C 0,9 UV-I 0,0 C 53 % 84 % 0 % 1019,7 hPa 0,0 l/m 0,0 km/h (0 Bft) 0,00 h 0,0 km/h (0 Bft)
26.06.2010 07:00 22,3 C 14,9 C 2,2 UV-I 0,0 C 53 % 80 % 0 % 1019,6 hPa 0,0 l/m 0,6 km/h (0 Bft) 0,00 h 1,0 km/h (0 Bft)
26.06.2010 08:00 22,5 C 17,7 C 4,4 UV-I 5,1 C 53 % 71 % 79 % 1020,0 hPa 0,0 l/m 1,2 km/h (1 Bft) 0,70 h 1,4 km/h (1 Bft)
26.06.2010 09:00 22,8 C 20,9 C 12,0 UV-I 7,1 C 53 % 61 % 100 % 1020,3 hPa 0,0 l/m 2,3 km/h (1 Bft) 0,90 h 3,6 km/h (1 Bft)
26.06.2010 10:00 23,0 C 23,0 C 15,4 UV-I 6,6 C 52 % 51 % 100 % 1020,4 hPa 0,0 l/m 4,1 km/h (1 Bft) 0,87 h 6,6 km/h (2 Bft)
26.06.2010 11:00 23,2 C 24,1 C 13,0 UV-I 6,0 C 52 % 45 % 100 % 1020,3 hPa 0,0 l/m 6,3 km/h (2 Bft) 0,87 h 8,3 km/h (2 Bft)
26.06.2010 12:00 23,5 C 24,9 C 9,8 UV-I 5,4 C 50 % 42 % 100 % 1020,4 hPa 0,0 l/m 6,3 km/h (2 Bft) 0,80 h 8,7 km/h (2 Bft)
26.06.2010 13:00 23,9 C 26,0 C 9,9 UV-I 5,1 C 49 % 39 % 100 % 1020,6 hPa 0,0 l/m 6,7 km/h (2 Bft) 0,80 h 7,3 km/h (2 Bft)
26.06.2010 14:00 24,8 C 26,9 C 10,1 UV-I 5,0 C 48 % 38 % 100 % 1020,7 hPa 0,0 l/m 7,5 km/h (2 Bft) 0,77 h 9,8 km/h (2 Bft)
26.06.2010 15:00 26,6 C 27,0 C 10,0 UV-I 4,8 C 44 % 38 % 100 % 1021,9 hPa 0,0 l/m 7,6 km/h (2 Bft) 0,67 h 6,5 km/h (2 Bft)
26.06.2010 16:00 27,9 C 27,4 C 10,9 UV-I 4,8 C 41 % 37 % 100 % 1022,7 hPa 0,0 l/m 7,7 km/h (2 Bft) 0,67 h 9,8 km/h (2 Bft)
26.06.2010 17:00 28,5 C 27,3 C 11,2 UV-I 4,3 C 40 % 36 % 100 % 1022,5 hPa 0,0 l/m 8,8 km/h (2 Bft) 0,57 h 9,5 km/h (2 Bft)
26.06.2010 18:00 28,1 C 26,7 C 4,8 UV-I 3,1 C 40 % 37 % 78 % 1021,6 hPa 0,0 l/m 8,0 km/h (2 Bft) 0,37 h 10,1 km/h (2 Bft)
26.06.2010 19:00 26,9 C 25,9 C 2,9 UV-I 0,1 C 42 % 39 % 2 % 1020,2 hPa 0,0 l/m 8,2 km/h (2 Bft) 0,00 h 10,5 km/h (2 Bft)
26.06.2010 20:00 26,3 C 25,1 C 1,6 UV-I 0,0 C 43 % 41 % 0 % 1019,7 hPa 0,0 l/m 8,2 km/h (2 Bft) 0,00 h 8,0 km/h (2 Bft)
26.06.2010 21:00 25,9 C 23,6 C 0,5 UV-I 0,0 C 44 % 45 % 0 % 1019,9 hPa 0,0 l/m 5,5 km/h (1 Bft) 0,00 h 4,7 km/h (1 Bft)
26.06.2010 22:00 25,1 C 21,3 C 0,1 UV-I 0,0 C 46 % 52 % 0 % 1020,3 hPa 0,0 l/m 0,1 km/h (0 Bft) 0,00 h 0,0 km/h (0 Bft)
26.06.2010 23:00 24,7 C 19,7 C 0,1 UV-I 0,0 C 47 % 56 % 0 % 1020,6 hPa 0,0 l/m 0,0 km/h (0 Bft) 0,00 h 0,0 km/h (0 Bft)
27.06.2010 00:00 24,4 C 19,0 C 0,1 UV-I 0,0 C 48 % 57 % 0 % 1020,9 hPa 0,0 l/m 0,0 km/h (0 Bft) 0,00 h 0,0 km/h (0 Bft)
27.06.2010 01:00 24,2 C 17,2 C 0,1 UV-I 0,0 C 48 % 63 % 0 % 1020,9 hPa 0,0 l/m 0,0 km/h (0 Bft) 0,00 h 0,0 km/h (0 Bft)
27.06.2010 02:00 23,9 C 15,8 C 0,1 UV-I 0,0 C 49 % 70 % 0 % 1020,7 hPa 0,0 l/m 0,0 km/h (0 Bft) 0,00 h 0,0 km/h (0 Bft)
27.06.2010 03:00 23,7 C 14,8 C 0,1 UV-I 0,0 C 49 % 75 % 0 % 1020,7 hPa 0,0 l/m 0,0 km/h (0 Bft) 0,00 h 0,0 km/h (0 Bft)
27.06.2010 04:00 23,5 C 14,0 C 0,1 UV-I 0,0 C 50 % 77 % 0 % 1020,9 hPa 0,0 l/m 0,0 km/h (0 Bft) 0,00 h 0,0 km/h (0 Bft)
27.06.2010 05:00 23,2 C 13,6 C 0,2 UV-I 0,0 C 50 % 79 % 0 % 1021,1 hPa 0,0 l/m 0,0 km/h (0 Bft) 0,00 h 0,0 km/h (0 Bft)
27.06.2010 06:00 23,2 C 13,4 C 0,9 UV-I 0,0 C 50 % 81 % 0 % 1021,2 hPa 0,0 l/m 0,0 km/h (0 Bft) 0,00 h 0,0 km/h (0 Bft)
27.06.2010 07:00 23,1 C 15,1 C 2,3 UV-I 0,0 C 51 % 79 % 0 % 1021,3 hPa 0,0 l/m 0,1 km/h (0 Bft) 0,00 h 0,1 km/h (0 Bft)
27.06.2010 08:00 23,2 C 18,1 C 4,4 UV-I 4,5 C 51 % 70 % 80 % 1021,5 hPa 0,0 l/m 2,3 km/h (1 Bft) 0,73 h 3,8 km/h (1 Bft)
27.06.2010 09:00 23,4 C 21,6 C 12,1 UV-I 6,2 C 51 % 60 % 100 % 1021,8 hPa 0,0 l/m 3,0 km/h (1 Bft) 0,80 h 3,0 km/h (1 Bft)
27.06.2010 10:00 23,6 C 23,8 C 15,5 UV-I 6,6 C 51 % 53 % 100 % 1022,0 hPa 0,0 l/m 2,9 km/h (1 Bft) 0,90 h 3,6 km/h (1 Bft)
27.06.2010 11:00 23,8 C 25,4 C 13,4 UV-I 6,7 C 51 % 49 % 100 % 1022,0 hPa 0,0 l/m 3,5 km/h (1 Bft) 0,83 h 5,0 km/h (1 Bft)
27.06.2010 12:00 24,1 C 26,6 C 9,8 UV-I 6,0 C 50 % 45 % 100 % 1022,2 hPa 0,0 l/m 5,2 km/h (1 Bft) 0,87 h 7,2 km/h (2 Bft)
27.06.2010 13:00 24,5 C 28,0 C 9,7 UV-I 5,3 C 50 % 39 % 100 % 1022,0 hPa 0,0 l/m 4,8 km/h (1 Bft) 0,80 h 5,1 km/h (1 Bft)
27.06.2010 14:00 25,4 C 29,3 C 9,7 UV-I 4,8 C 48 % 35 % 100 % 1021,9 hPa 0,0 l/m 4,7 km/h (1 Bft) 0,83 h 5,3 km/h (1 Bft)
27.06.2010 15:00 27,2 C 30,2 C 10,0 UV-I 4,8 C 44 % 34 % 100 % 1023,1 hPa 0,0 l/m 3,7 km/h (1 Bft) 0,85 h 4,5 km/h (1 Bft)
27.06.2010 16:00 28,6 C 30,7 C 10,5 UV-I 4,2 C 41 % 34 % 100 % 1024,1 hPa 0,0 l/m 4,7 km/h (1 Bft) 0,97 h 5,4 km/h (1 Bft)
27.06.2010 17:00 29,1 C 30,9 C 10,9 UV-I 4,1 C 40 % 34 % 100 % 1023,6 hPa 0,0 l/m 4,5 km/h (1 Bft) 1,00 h 5,0 km/h (1 Bft)
27.06.2010 18:00 28,8 C 29,6 C 5,1 UV-I 3,3 C 41 % 36 % 82 % 1022,5 hPa 0,0 l/m 3,1 km/h (1 Bft) 0,67 h 2,9 km/h (1 Bft)
27.06.2010 19:00 27,8 C 28,7 C 3,1 UV-I 0,3 C 43 % 38 % 9 % 1021,1 hPa 0,0 l/m 0,7 km/h (0 Bft) 0,00 h 1,1 km/h (0 Bft)
27.06.2010 20:00 27,2 C 27,9 C 1,7 UV-I 0,0 C 44 % 40 % 0 % 1020,9 hPa 0,0 l/m 0,4 km/h (0 Bft) 0,00 h 0,3 km/h (0 Bft)
27.06.2010 21:00 26,8 C 25,9 C 0,5 UV-I 0,0 C 46 % 50 % 0 % 1020,9 hPa 0,0 l/m 0,0 km/h (0 Bft) 0,00 h 0,0 km/h (0 Bft)
27.06.2010 22:00 26,3 C 23,5 C 0,1 UV-I 0,0 C 47 % 58 % 0 % 1021,1 hPa 0,0 l/m 0,0 km/h (0 Bft) 0,00 h 0,0 km/h (0 Bft)
27.06.2010 23:00 25,7 C 21,4 C 0,1 UV-I 0,0 C 49 % 64 % 0 % 1021,1 hPa 0,0 l/m 0,0 km/h (0 Bft) 0,00 h 0,0 km/h (0 Bft)
Min-Datum _ 21.06.10 22.06.10 22.06.10 21.06.10 21.06.10 23.06.10 21.06.10 25.06.10 - 21.06.10 - 21.06.10
_ Min-Zeit 05:06 06:14 00:12 00:02 18:20 16:48 00:02 20:33 - 00:02 - 00:02
Minimum _ 18,8 C 8,2 C 0,0 UV-I 0,0 C 39 % 33 % 0 % 1018,5 hPa - 0,0 km/h (0 Bft) - 0,0 km/h (0 Bft)
Max-Datum _ 27.06.10 27.06.10 27.06.10 22.06.10 21.06.10 22.06.10 21.06.10 22.06.10 21.06.10 25.06.10 21.06.10 21.06.10
_ Max-Zeit 17:40 17:16 10:08 10:32 03:56 06:46 08:48 15:52 00:02 16:58 08:40 19:20
Maximum _ 29,2 C 31,1 C 15,9 UV-I 9,2 C 53 % 91 % 100 % 1028,2 hPa 0,0 l/m 15,3 km/h
S-SW (3 Bft)
0,03 h 33,5 km/h
SW (5 Bft)
Durchschnitt _ 23,0 C 19,4 C 4,6 UV-I 2,3 C 48 % 59 % 43 % 1022,2 hPa #0,0 l/m 3,0 km/h (1 Bft) #58:40 h 3,5 km/h (1 Bft)
© 2012 W. Hausmann